createdAt,value
2023-05-10T00:02:27.636Z,13.50
2023-05-10T00:04:54.766Z,13.52
2023-05-10T00:07:21.807Z,13.53
2023-05-10T00:09:48.853Z,13.54
2023-05-10T00:12:15.828Z,13.51
2023-05-10T00:14:43.497Z,13.49
2023-05-10T00:17:10.467Z,13.49
2023-05-10T00:19:37.541Z,13.48
2023-05-10T00:22:04.575Z,13.49
2023-05-10T00:24:31.692Z,13.49
2023-05-10T00:26:58.784Z,13.46
2023-05-10T00:29:25.977Z,13.47
2023-05-10T00:31:53.649Z,13.47
2023-05-10T00:34:20.789Z,13.46
2023-05-10T00:36:47.890Z,13.46
2023-05-10T00:39:15.061Z,13.44
2023-05-10T00:41:42.040Z,13.43
2023-05-10T00:44:09.220Z,13.44
2023-05-10T00:46:36.336Z,13.42
2023-05-10T00:49:03.418Z,13.42
2023-05-10T00:51:30.658Z,13.42
2023-05-10T00:53:57.751Z,13.41
2023-05-10T00:56:25.824Z,13.36
2023-05-10T00:58:52.924Z,13.33
2023-05-10T01:01:20.770Z,13.32
2023-05-10T01:03:48.491Z,13.26
2023-05-10T01:06:16.220Z,13.21
2023-05-10T01:08:43.222Z,11.84
2023-05-10T01:11:10.696Z,11.97
2023-05-10T01:13:39.301Z,12.08
2023-05-10T01:16:07.917Z,12.41
2023-05-10T01:18:40.784Z,13.03
2023-05-10T01:21:34.129Z,13.02
2023-05-10T01:24:04.106Z,12.98
2023-05-10T01:26:52.893Z,12.92
2023-05-10T01:29:45.004Z,11.50
2023-05-10T01:32:31.139Z,11.67
2023-05-10T01:35:04.171Z,11.81
2023-05-10T01:37:52.236Z,11.64
2023-05-10T01:40:48.748Z,11.29
2023-05-10T01:43:28.060Z,11.56
2023-05-10T01:46:13.682Z,12.22
2023-05-10T01:48:48.040Z,12.43
2023-05-10T01:51:20.684Z,12.41
2023-05-10T01:53:47.694Z,12.41
2023-05-10T01:56:16.914Z,12.41
2023-05-10T01:58:46.790Z,12.43
2023-05-10T02:01:14.374Z,12.47
2023-05-10T02:03:41.661Z,12.43
2023-05-10T02:06:08.781Z,12.41
2023-05-10T02:08:35.934Z,12.39
2023-05-10T02:11:04.885Z,12.36
2023-05-10T02:13:32.926Z,12.35
2023-05-10T02:15:59.897Z,12.29
2023-05-10T02:18:27.129Z,12.21
2023-05-10T02:20:54.527Z,12.21
2023-05-10T02:23:21.764Z,12.20
2023-05-10T02:25:49.254Z,12.18
2023-05-10T02:28:16.589Z,12.12
2023-05-10T02:30:43.606Z,12.05
2023-05-10T02:33:11.373Z,12.08
2023-05-10T02:35:38.928Z,12.09
2023-05-10T02:38:06.079Z,12.05
2023-05-10T02:40:33.091Z,12.06
2023-05-10T02:43:00.415Z,12.09
2023-05-10T02:45:29.491Z,12.08
2023-05-10T02:47:57.059Z,12.09
2023-05-10T02:50:24.099Z,12.09
2023-05-10T02:52:53.148Z,12.09
2023-05-10T02:55:21.449Z,12.10
2023-05-10T02:58:02.628Z,12.06
2023-05-10T03:00:29.869Z,12.11
2023-05-10T03:02:57.054Z,12.12
2023-05-10T03:05:24.591Z,12.11
2023-05-10T03:07:52.632Z,12.06
2023-05-10T03:10:19.872Z,12.07
2023-05-10T03:13:16.441Z,12.12
2023-05-10T03:15:48.274Z,12.16
2023-05-10T03:18:23.691Z,12.16
2023-05-10T03:20:52.061Z,12.17
2023-05-10T03:23:19.261Z,12.15
2023-05-10T03:25:47.492Z,12.11
2023-05-10T03:28:14.753Z,12.15
2023-05-10T03:30:42.227Z,12.16
2023-05-10T03:33:11.991Z,12.19
2023-05-10T03:35:41.196Z,12.23
2023-05-10T03:38:08.488Z,12.24
2023-05-10T03:40:35.654Z,12.28
2023-05-10T03:43:02.707Z,12.30
2023-05-10T03:45:29.837Z,12.35
2023-05-10T03:47:57.915Z,12.41
2023-05-10T03:50:25.492Z,12.48
2023-05-10T03:52:54.770Z,12.58
2023-05-10T03:55:23.612Z,12.72
2023-05-10T03:57:51.480Z,12.86
2023-05-10T04:00:19.467Z,12.96
2023-05-10T04:02:48.183Z,13.01
2023-05-10T04:05:19.265Z,13.05
2023-05-10T04:07:46.310Z,13.05
2023-05-10T04:10:13.719Z,13.10
2023-05-10T04:12:41.109Z,13.20
2023-05-10T04:15:09.077Z,13.28
2023-05-10T04:17:36.074Z,13.35
2023-05-10T04:20:03.154Z,13.46
2023-05-10T04:22:30.273Z,13.53
2023-05-10T04:24:57.411Z,13.69
2023-05-10T04:27:24.580Z,13.82
2023-05-10T04:29:52.035Z,13.97
2023-05-10T04:32:19.217Z,14.12
2023-05-10T04:34:46.238Z,14.27
2023-05-10T04:37:13.392Z,14.38
2023-05-10T04:39:42.278Z,13.71
2023-05-10T04:42:09.776Z,13.83
2023-05-10T04:44:37.388Z,13.97
2023-05-10T04:47:04.664Z,14.09
2023-05-10T04:49:31.842Z,14.17
2023-05-10T04:51:58.971Z,14.31
2023-05-10T04:54:26.209Z,14.60
2023-05-10T04:56:53.220Z,15.00
2023-05-10T04:59:20.247Z,15.09
2023-05-10T05:01:47.428Z,14.99
2023-05-10T05:04:15.649Z,14.68
2023-05-10T05:06:42.707Z,14.73
2023-05-10T05:09:11.345Z,14.83
2023-05-10T05:11:38.440Z,14.92
2023-05-10T05:14:05.791Z,15.01
2023-05-10T05:16:33.607Z,15.10
2023-05-10T05:19:01.812Z,15.21
2023-05-10T05:21:29.912Z,15.27
2023-05-10T05:23:56.963Z,15.39
2023-05-10T05:26:24.832Z,15.44
2023-05-10T05:31:22.159Z,15.63
2023-05-10T05:33:49.232Z,15.72
2023-05-10T05:36:16.653Z,15.82
2023-05-10T05:38:44.278Z,15.91
2023-05-10T05:41:11.426Z,15.96
2023-05-10T05:43:38.735Z,16.06
2023-05-10T05:46:06.189Z,16.17
2023-05-10T05:48:33.219Z,16.36
2023-05-10T05:51:00.337Z,16.38
2023-05-10T05:53:27.996Z,16.45
2023-05-10T05:55:55.902Z,16.53
2023-05-10T05:58:23.545Z,16.60
2023-05-10T06:00:50.914Z,16.69
2023-05-10T06:03:18.109Z,16.80
2023-05-10T06:05:45.462Z,16.90
2023-05-10T06:08:12.609Z,17.02
2023-05-10T06:10:40.022Z,17.14
2023-05-10T06:13:07.147Z,17.26
2023-05-10T06:15:34.563Z,17.34
2023-05-10T06:18:02.151Z,17.44
2023-05-10T06:20:29.307Z,17.53
2023-05-10T06:22:56.320Z,17.67
2023-05-10T06:25:23.472Z,17.75
2023-05-10T06:27:53.614Z,17.86
2023-05-10T06:30:24.200Z,17.91
2023-05-10T06:33:59.800Z,17.46
2023-05-10T06:36:27.694Z,18.48
2023-05-10T06:38:54.676Z,18.66
2023-05-10T06:41:24.586Z,18.82
2023-05-10T06:43:51.980Z,18.58
2023-05-10T06:46:19.181Z,18.29
2023-05-10T06:48:46.408Z,17.68
2023-05-10T06:51:13.694Z,18.57
2023-05-10T06:53:40.816Z,19.58
2023-05-10T06:56:08.284Z,19.72
2023-05-10T06:58:35.275Z,19.79
2023-05-10T07:01:06.248Z,19.85
2023-05-10T07:03:33.422Z,19.93
2023-05-10T07:06:04.971Z,20.01
2023-05-10T07:08:32.735Z,20.05
2023-05-10T07:11:08.354Z,20.07
2023-05-10T07:13:35.745Z,20.15
2023-05-10T07:16:03.364Z,20.20
2023-05-10T07:18:30.663Z,20.31
2023-05-10T07:20:58.427Z,20.40
2023-05-10T07:23:25.621Z,20.50
2023-05-10T07:25:53.684Z,20.58
2023-05-10T07:28:21.312Z,20.68
2023-05-10T07:30:48.441Z,20.78
2023-05-10T07:33:15.830Z,20.85
2023-05-10T07:35:43.563Z,20.90
2023-05-10T07:38:12.241Z,20.94
2023-05-10T07:40:40.517Z,21.01
2023-05-10T07:43:07.627Z,21.09
2023-05-10T07:45:35.166Z,21.17
2023-05-10T07:48:02.296Z,21.26
2023-05-10T07:50:29.873Z,21.33
2023-05-10T07:52:57.657Z,21.38
2023-05-10T07:55:24.812Z,21.48
2023-05-10T07:57:51.908Z,21.54
2023-05-10T08:00:19.497Z,21.63
2023-05-10T08:02:46.991Z,21.73
2023-05-10T08:05:14.850Z,21.82
2023-05-10T08:07:41.849Z,21.85
2023-05-10T08:10:09.970Z,21.91
2023-05-10T08:12:37.036Z,21.93
2023-05-10T08:15:04.748Z,22.03
2023-05-10T08:17:32.120Z,22.12
2023-05-10T08:19:59.150Z,22.17
2023-05-10T08:22:26.117Z,22.18
2023-05-10T08:24:53.476Z,22.16
2023-05-10T08:27:20.766Z,22.18
2023-05-10T08:29:50.343Z,22.20
2023-05-10T08:32:18.574Z,22.20
2023-05-10T08:34:45.451Z,22.19
2023-05-10T08:37:14.498Z,22.10
2023-05-10T08:39:42.249Z,22.01
2023-05-10T08:42:09.530Z,22.03
2023-05-10T08:44:37.579Z,22.12
2023-05-10T08:47:06.975Z,22.24
2023-05-10T08:49:34.756Z,22.35
2023-05-10T08:52:05.159Z,22.28
2023-05-10T08:54:33.423Z,22.15
2023-05-10T08:57:00.900Z,22.07
2023-05-10T08:59:32.184Z,21.99
2023-05-10T09:02:00.187Z,21.91
2023-05-10T09:04:27.476Z,21.84
2023-05-10T09:06:55.065Z,21.79
2023-05-10T09:09:22.366Z,21.67
2023-05-10T09:11:49.395Z,21.59
2023-05-10T09:14:16.439Z,21.56
2023-05-10T09:16:43.902Z,21.50
2023-05-10T09:19:11.560Z,21.44
2023-05-10T09:21:39.484Z,21.42
2023-05-10T09:24:08.236Z,21.47
2023-05-10T09:26:36.805Z,21.56
2023-05-10T09:29:04.175Z,21.59
2023-05-10T09:31:56.062Z,21.58
2023-05-10T09:34:33.439Z,21.62
2023-05-10T09:37:02.594Z,21.60
2023-05-10T09:39:38.902Z,21.58
2023-05-10T09:42:10.114Z,21.57
2023-05-10T09:44:38.028Z,21.47
2023-05-10T09:47:04.919Z,21.33
2023-05-10T09:49:32.075Z,21.30
2023-05-10T09:52:06.679Z,21.26
2023-05-10T09:54:34.327Z,21.29
2023-05-10T09:57:02.027Z,21.26
2023-05-10T09:59:29.608Z,21.17
2023-05-10T10:01:57.737Z,21.12
2023-05-10T10:04:24.998Z,21.05
2023-05-10T10:07:04.952Z,21.09
2023-05-10T10:09:32.523Z,21.20
2023-05-10T10:12:01.122Z,21.28
2023-05-10T10:14:28.701Z,21.29
2023-05-10T10:17:06.675Z,21.32
2023-05-10T10:19:36.884Z,21.31
2023-05-10T10:22:04.455Z,21.22
2023-05-10T10:24:31.716Z,21.12
2023-05-10T10:27:11.178Z,21.17
2023-05-10T10:30:29.378Z,21.16
2023-05-10T10:33:27.961Z,21.20
2023-05-10T10:35:56.815Z,21.26
2023-05-10T10:38:24.028Z,21.26
2023-05-10T10:41:04.432Z,21.34
2023-05-10T10:43:31.696Z,21.45
2023-05-10T10:46:13.064Z,21.53
2023-05-10T10:48:40.431Z,21.55
2023-05-10T10:51:07.446Z,21.60
2023-05-10T10:53:34.929Z,21.65
2023-05-10T10:56:10.518Z,21.67
2023-05-10T10:58:39.090Z,21.78
2023-05-10T11:01:17.041Z,21.88
2023-05-10T11:04:16.375Z,21.95
2023-05-10T11:06:43.882Z,22.08
2023-05-10T11:09:12.758Z,22.04
2023-05-10T11:11:53.385Z,21.95
2023-05-10T11:14:23.713Z,21.91
2023-05-10T11:16:50.940Z,21.91
2023-05-10T11:19:19.178Z,21.89
2023-05-10T11:25:47.869Z,22.07
2023-05-10T11:28:14.994Z,22.13
2023-05-10T11:30:42.936Z,22.16
2023-05-10T11:33:10.868Z,22.12
2023-05-10T11:35:41.068Z,22.10
2023-05-10T11:38:11.008Z,22.18
2023-05-10T11:40:38.377Z,22.29
2023-05-10T11:43:07.212Z,22.39
2023-05-10T11:45:34.625Z,22.38
2023-05-10T11:48:01.945Z,22.50
2023-05-10T11:50:29.298Z,22.60
2023-05-10T11:52:57.404Z,22.69
2023-05-10T11:55:25.487Z,22.67
2023-05-10T11:57:55.962Z,22.63
2023-05-10T12:00:23.135Z,22.60
2023-05-10T12:02:50.513Z,22.53
2023-05-10T12:05:17.823Z,22.54
2023-05-10T12:07:44.905Z,22.58
2023-05-10T12:10:16.135Z,22.57
2023-05-10T12:12:48.542Z,22.63
2023-05-10T12:15:23.460Z,22.67
2023-05-10T12:17:51.308Z,22.69
2023-05-10T12:20:20.012Z,22.74
2023-05-10T12:22:48.804Z,22.76
2023-05-10T12:25:15.955Z,22.69
2023-05-10T12:30:37.141Z,22.57
2023-05-10T12:33:12.212Z,22.51
2023-05-10T12:35:47.705Z,22.52
2023-05-10T12:38:39.399Z,22.57
2023-05-10T12:41:08.120Z,22.61
2023-05-10T12:43:35.850Z,22.59
2023-05-10T12:46:10.300Z,22.58
2023-05-10T12:48:38.047Z,22.66
2023-05-10T12:51:06.107Z,22.72
2023-05-10T12:53:33.352Z,22.81
2023-05-10T12:56:00.587Z,22.94
2023-05-10T12:58:35.454Z,23.07
2023-05-10T13:01:03.659Z,23.19
2023-05-10T13:03:30.797Z,23.28
2023-05-10T13:05:58.178Z,23.30
2023-05-10T13:08:25.374Z,23.31
2023-05-10T13:10:52.333Z,23.31
2023-05-10T13:13:19.436Z,23.35
2023-05-10T13:15:46.630Z,23.41
2023-05-10T13:18:14.177Z,23.34
2023-05-10T13:20:41.373Z,23.31
2023-05-10T13:23:08.624Z,23.29
2023-05-10T13:25:35.887Z,23.32
2023-05-10T13:28:03.720Z,23.37
2023-05-10T13:30:31.001Z,23.42
2023-05-10T13:32:58.053Z,23.50
2023-05-10T13:35:25.192Z,23.50
2023-05-10T13:37:54.543Z,23.55
2023-05-10T13:40:21.637Z,23.59
2023-05-10T13:42:48.841Z,23.69
2023-05-10T13:45:16.308Z,23.83
2023-05-10T13:47:43.487Z,24.02
2023-05-10T13:50:11.190Z,24.20
2023-05-10T13:52:38.700Z,24.33
2023-05-10T13:55:06.225Z,24.33
2023-05-10T13:57:35.570Z,24.21
2023-05-10T14:00:03.061Z,24.13
2023-05-10T14:02:35.137Z,24.06
2023-05-10T14:05:02.529Z,23.92
2023-05-10T14:07:29.769Z,23.77
2023-05-10T14:09:56.887Z,23.70
2023-05-10T14:12:23.928Z,23.66
2023-05-10T14:14:51.392Z,23.76
2023-05-10T14:17:18.545Z,23.81
2023-05-10T14:19:45.799Z,23.79
2023-05-10T14:22:12.916Z,23.72
2023-05-10T14:24:39.872Z,23.68
2023-05-10T14:27:07.173Z,23.71
2023-05-10T14:29:34.358Z,23.68
2023-05-10T14:32:01.566Z,23.64
2023-05-10T14:34:28.637Z,23.58
2023-05-10T14:36:56.305Z,23.41
2023-05-10T14:39:23.930Z,23.29
2023-05-10T14:41:52.546Z,23.18
2023-05-10T14:44:19.981Z,23.16
2023-05-10T14:46:46.941Z,23.11
2023-05-10T14:49:13.930Z,23.20
2023-05-10T14:51:41.054Z,23.24
2023-05-10T14:54:08.059Z,23.35
2023-05-10T14:56:35.207Z,23.40
2023-05-10T14:59:02.229Z,23.42
2023-05-10T15:01:29.772Z,23.46
2023-05-10T15:03:57.332Z,23.47
2023-05-10T15:06:28.104Z,23.41
2023-05-10T15:08:55.109Z,23.38
2023-05-10T15:11:22.623Z,23.39
2023-05-10T15:13:49.669Z,23.37
2023-05-10T15:16:16.714Z,23.30
2023-05-10T15:18:43.912Z,23.17
2023-05-10T15:21:11.259Z,23.01
2023-05-10T15:23:38.238Z,22.90
2023-05-10T15:26:05.222Z,22.85
2023-05-10T15:28:33.623Z,22.81
2023-05-10T15:31:01.621Z,22.71
2023-05-10T15:33:28.718Z,22.61
2023-05-10T15:35:55.972Z,22.47
2023-05-10T15:38:23.708Z,22.37
2023-05-10T15:40:50.686Z,22.35
2023-05-10T15:43:18.153Z,22.37
2023-05-10T15:45:45.416Z,22.41
2023-05-10T15:48:12.581Z,22.33
2023-05-10T15:50:41.572Z,22.28
2023-05-10T15:53:08.618Z,22.29
2023-05-10T15:55:35.898Z,22.22
2023-05-10T15:58:03.455Z,22.14
2023-05-10T16:00:30.638Z,22.05
2023-05-10T16:02:57.736Z,22.01
2023-05-10T16:05:24.963Z,21.92
2023-05-10T16:07:52.021Z,21.84
2023-05-10T16:10:19.167Z,21.74
2023-05-10T16:12:47.030Z,21.64
2023-05-10T16:15:14.215Z,21.53
2023-05-10T16:17:41.977Z,21.49
2023-05-10T16:20:09.755Z,21.46
2023-05-10T16:22:37.030Z,21.37
2023-05-10T16:25:04.412Z,21.32
2023-05-10T16:27:33.696Z,21.33
2023-05-10T16:30:00.878Z,21.30
2023-05-10T16:32:28.139Z,21.21
2023-05-10T16:34:55.605Z,21.21
2023-05-10T16:37:22.688Z,21.17
2023-05-10T16:39:49.727Z,21.22
2023-05-10T16:42:17.089Z,21.25
2023-05-10T16:44:44.170Z,21.23
2023-05-10T16:47:11.319Z,21.24
2023-05-10T16:49:38.457Z,21.24
2023-05-10T16:52:05.425Z,21.22
2023-05-10T16:54:32.516Z,21.15
2023-05-10T16:56:59.950Z,21.08
2023-05-10T16:59:27.334Z,21.07
2023-05-10T17:01:55.045Z,21.02
2023-05-10T17:04:22.144Z,20.92
2023-05-10T17:06:49.110Z,20.86
2023-05-10T17:09:16.177Z,20.81
2023-05-10T17:11:43.356Z,20.73
2023-05-10T17:14:10.481Z,20.65
2023-05-10T17:16:37.750Z,20.58
2023-05-10T17:19:05.220Z,20.46
2023-05-10T17:21:32.661Z,20.36
2023-05-10T17:23:59.826Z,20.29
2023-05-10T17:26:27.786Z,20.22
2023-05-10T17:28:55.097Z,20.15
2023-05-10T17:31:22.335Z,20.08
2023-05-10T17:33:49.497Z,19.98
2023-05-10T17:36:16.609Z,19.96
2023-05-10T17:38:43.615Z,19.92
2023-05-10T17:41:10.683Z,19.85
2023-05-10T17:43:37.691Z,19.78
2023-05-10T17:46:04.859Z,19.68
2023-05-10T17:48:32.348Z,19.62
2023-05-10T17:50:59.380Z,19.53
2023-05-10T17:53:26.370Z,19.48
2023-05-10T17:55:54.094Z,19.41
2023-05-10T17:58:21.160Z,19.33
2023-05-10T18:00:48.328Z,19.24
2023-05-10T18:03:15.645Z,19.13
2023-05-10T18:05:42.679Z,19.05
2023-05-10T18:08:09.946Z,18.97
2023-05-10T18:10:40.032Z,18.85
2023-05-10T18:13:09.049Z,18.78
2023-05-10T18:15:36.318Z,18.69
2023-05-10T18:18:04.608Z,18.53
2023-05-10T18:20:32.059Z,18.43
2023-05-10T18:22:59.326Z,18.35
2023-05-10T18:25:26.794Z,18.20
2023-05-10T18:27:53.946Z,18.09
2023-05-10T18:30:20.924Z,17.99
2023-05-10T18:32:48.117Z,17.89
2023-05-10T18:35:15.883Z,17.77
2023-05-10T18:37:43.037Z,17.71
2023-05-10T18:40:11.322Z,17.63
2023-05-10T18:42:38.347Z,17.52
2023-05-10T18:45:06.516Z,17.40
2023-05-10T18:49:59.034Z,16.51
2023-05-10T18:52:26.088Z,17.28
2023-05-10T18:54:53.416Z,17.19
2023-05-10T18:57:21.404Z,17.10
2023-05-10T18:59:49.216Z,17.03
2023-05-10T19:02:16.515Z,16.94
2023-05-10T19:04:43.774Z,16.86
2023-05-10T19:07:11.360Z,16.81
2023-05-10T19:09:38.372Z,16.77
2023-05-10T19:12:05.690Z,16.71
2023-05-10T19:14:32.989Z,16.67
2023-05-10T19:17:00.018Z,16.61
2023-05-10T19:19:28.062Z,16.55
2023-05-10T19:21:54.996Z,16.49
2023-05-10T19:24:25.166Z,16.45
2023-05-10T19:26:52.629Z,16.39
2023-05-10T19:29:19.695Z,16.33
2023-05-10T19:31:47.356Z,16.28
2023-05-10T19:34:14.464Z,16.23
2023-05-10T19:36:41.528Z,16.16
2023-05-10T19:39:08.625Z,16.09
2023-05-10T19:41:35.865Z,16.03
2023-05-10T19:44:03.032Z,15.97
2023-05-10T19:46:31.327Z,15.94
2023-05-10T19:48:58.537Z,15.88
2023-05-10T19:51:25.724Z,15.81
2023-05-10T19:53:52.876Z,15.79
2023-05-10T19:56:19.899Z,15.76
2023-05-10T19:58:47.015Z,15.72
2023-05-10T20:01:14.073Z,15.69
2023-05-10T20:03:41.681Z,15.66
2023-05-10T20:06:09.106Z,15.61
2023-05-10T20:08:36.173Z,15.56
2023-05-10T20:11:04.043Z,15.52
2023-05-10T20:13:31.106Z,15.48
2023-05-10T20:15:58.636Z,15.46
2023-05-10T20:18:26.827Z,15.40
2023-05-10T20:20:58.466Z,15.34
2023-05-10T20:23:25.820Z,15.32
2023-05-10T20:25:53.818Z,15.26
2023-05-10T20:28:21.454Z,15.23
2023-05-10T20:30:52.454Z,15.21
2023-05-10T20:33:20.973Z,15.17
2023-05-10T20:35:47.990Z,15.16
2023-05-10T20:38:15.164Z,15.14
2023-05-10T20:40:42.924Z,15.10
2023-05-10T20:43:10.109Z,15.08
2023-05-10T20:45:37.927Z,15.08
2023-05-10T20:48:05.069Z,15.05
2023-05-10T20:50:32.104Z,15.02
2023-05-10T20:53:00.736Z,14.95
2023-05-10T20:55:28.465Z,14.94
2023-05-10T20:57:55.454Z,14.91
2023-05-10T21:00:22.471Z,14.89
2023-05-10T21:02:49.730Z,14.87
2023-05-10T21:05:17.857Z,14.81
2023-05-10T21:07:44.979Z,14.79
2023-05-10T21:10:12.296Z,14.78
2023-05-10T21:12:39.332Z,14.76
2023-05-10T21:15:06.861Z,14.75
2023-05-10T21:17:34.169Z,14.74
2023-05-10T21:20:01.261Z,14.70
2023-05-10T21:22:28.280Z,14.66
2023-05-10T21:24:55.333Z,14.64
2023-05-10T21:27:22.351Z,14.59
2023-05-10T21:29:49.440Z,14.54
2023-05-10T21:32:16.756Z,14.53
2023-05-10T21:34:44.037Z,14.52
2023-05-10T21:37:11.119Z,14.50
2023-05-10T21:39:38.400Z,14.44
2023-05-10T21:42:05.461Z,14.38
2023-05-10T21:44:32.759Z,14.33
2023-05-10T21:46:59.754Z,14.30
2023-05-10T21:49:27.139Z,14.27
2023-05-10T21:51:54.134Z,14.26
2023-05-10T21:54:21.721Z,14.22
2023-05-10T21:56:49.256Z,14.17
2023-05-10T21:59:16.281Z,14.16
2023-05-10T22:01:44.088Z,14.14
2023-05-10T22:04:11.403Z,14.12
2023-05-10T22:06:38.764Z,14.12
2023-05-10T22:09:05.910Z,14.05
2023-05-10T22:11:32.942Z,14.03
2023-05-10T22:13:59.971Z,14.00
2023-05-10T22:16:27.052Z,14.00
2023-05-10T22:18:54.674Z,13.99
2023-05-10T22:21:22.109Z,13.96
2023-05-10T22:23:49.113Z,13.94
2023-05-10T22:26:16.105Z,13.91
2023-05-10T22:28:43.817Z,13.87
2023-05-10T22:31:13.993Z,13.83
2023-05-10T22:33:40.997Z,13.81
2023-05-10T22:36:09.380Z,13.81
2023-05-10T22:38:36.380Z,13.80
2023-05-10T22:41:03.784Z,13.77
2023-05-10T22:43:30.782Z,13.76
2023-05-10T22:45:57.773Z,13.75
2023-05-10T22:48:24.800Z,13.74
2023-05-10T22:50:51.883Z,13.74
2023-05-10T22:53:18.988Z,13.74
2023-05-10T22:55:47.244Z,13.73
2023-05-10T22:58:14.265Z,13.71
2023-05-10T23:00:41.410Z,13.69
2023-05-10T23:03:08.595Z,13.66
2023-05-10T23:05:35.927Z,13.61
2023-05-10T23:08:03.177Z,13.59
2023-05-10T23:10:30.119Z,13.57
2023-05-10T23:12:57.177Z,13.53
2023-05-10T23:15:24.350Z,13.49
2023-05-10T23:17:51.565Z,13.45
2023-05-10T23:20:18.929Z,13.42
2023-05-10T23:22:46.293Z,13.42
2023-05-10T23:25:13.242Z,13.39
2023-05-10T23:27:40.420Z,13.38
2023-05-10T23:30:08.574Z,13.39
2023-05-10T23:32:36.017Z,13.39
2023-05-10T23:35:03.507Z,13.39
2023-05-10T23:37:30.692Z,13.36
2023-05-10T23:39:58.204Z,13.37
2023-05-10T23:42:25.612Z,13.39
2023-05-10T23:44:52.798Z,13.39
2023-05-10T23:47:19.871Z,13.36
2023-05-10T23:49:46.993Z,13.32
2023-05-10T23:52:14.199Z,13.27
2023-05-10T23:54:42.603Z,13.24
2023-05-10T23:57:10.394Z,13.23
2023-05-10T23:59:37.448Z,13.24
